createdAt,value
2019-05-06T00:01:53.962Z,101987.05
2019-05-06T00:04:24.772Z,101988.77
2019-05-06T00:06:54.792Z,101992.21
2019-05-06T00:09:24.153Z,101988.22
2019-05-06T00:11:54.331Z,101987.53
2019-05-06T00:14:23.708Z,101989.16
2019-05-06T00:16:54.529Z,101996.70
2019-05-06T00:19:24.611Z,101987.59
2019-05-06T00:21:54.055Z,101987.76
2019-05-06T00:24:25.017Z,101986.39
2019-05-06T00:27:00.979Z,101979.05
2019-05-06T00:29:30.321Z,101985.04
2019-05-06T00:31:58.885Z,101988.86
2019-05-06T00:34:27.429Z,101982.08
2019-05-06T00:36:55.977Z,101986.34
2019-05-06T00:39:26.240Z,101979.86
2019-05-06T00:42:05.456Z,101980.95
2019-05-06T00:44:34.630Z,101976.48
2019-05-06T00:47:04.312Z,101979.46
2019-05-06T00:49:34.430Z,101983.52
2019-05-06T00:52:04.254Z,101978.38
2019-05-06T00:54:34.034Z,101978.19
2019-05-06T00:57:03.655Z,101971.79
2019-05-06T00:59:34.426Z,101971.79
2019-05-06T01:02:04.557Z,101973.91
2019-05-06T01:04:33.876Z,101970.40
2019-05-06T01:07:03.919Z,101973.38
2019-05-06T01:09:34.871Z,101975.84
2019-05-06T01:12:04.939Z,101974.72
2019-05-06T01:14:50.376Z,101980.50
2019-05-06T01:17:18.916Z,101986.59
2019-05-06T01:19:47.493Z,101989.20
2019-05-06T01:22:16.111Z,101988.14
2019-05-06T01:24:44.766Z,101995.81
2019-05-06T01:27:14.541Z,101989.06
2019-05-06T01:29:44.154Z,101989.30
2019-05-06T01:32:13.970Z,101987.47
2019-05-06T01:34:44.541Z,101992.37
2019-05-06T01:37:14.241Z,101987.37
2019-05-06T01:39:47.606Z,101980.77
2019-05-06T01:42:26.698Z,101982.97
2019-05-06T01:44:55.318Z,101983.01
2019-05-06T01:47:23.922Z,101979.50
2019-05-06T01:49:53.759Z,101983.52
2019-05-06T01:52:24.049Z,101982.28
2019-05-06T01:54:54.275Z,101980.89
2019-05-06T01:57:24.461Z,101978.44
2019-05-06T01:59:53.909Z,101982.16
2019-05-06T02:02:23.891Z,101985.48
2019-05-06T02:04:54.006Z,101986.78
2019-05-06T02:07:24.135Z,101988.19
2019-05-06T02:09:54.221Z,101986.08
2019-05-06T02:12:24.618Z,101987.87
2019-05-06T02:14:54.303Z,101990.10
2019-05-06T02:17:23.932Z,101987.74
2019-05-06T02:19:54.689Z,101985.84
2019-05-06T02:22:30.660Z,101982.77
2019-05-06T02:25:00.848Z,101980.59
2019-05-06T02:27:29.486Z,101983.96
2019-05-06T02:30:08.667Z,101984.44
2019-05-06T02:32:41.632Z,101974.41
2019-05-06T02:35:14.326Z,101978.23
2019-05-06T02:37:46.481Z,101975.34
2019-05-06T02:40:24.713Z,101979.44
2019-05-06T02:42:54.801Z,101981.55
2019-05-06T02:45:24.414Z,101981.63
2019-05-06T02:47:57.566Z,101979.84
2019-05-06T02:50:46.218Z,101983.63
2019-05-06T02:53:16.542Z,101978.58
2019-05-06T02:55:45.138Z,101984.78
2019-05-06T02:58:14.797Z,101982.28
2019-05-06T03:00:43.687Z,101980.81
2019-05-06T03:03:13.981Z,101981.20
2019-05-06T03:05:43.984Z,101983.16
2019-05-06T03:08:13.634Z,101984.23
2019-05-06T03:10:44.120Z,101984.34
2019-05-06T03:13:14.210Z,101985.62
2019-05-06T03:15:43.669Z,101991.08
2019-05-06T03:18:14.767Z,101988.91
2019-05-06T03:20:59.437Z,101991.06
2019-05-06T03:23:45.007Z,101983.14
2019-05-06T03:26:13.886Z,101981.73
2019-05-06T03:28:44.118Z,101976.24
2019-05-06T03:31:16.591Z,101973.65
2019-05-06T03:34:03.494Z,101982.63
2019-05-06T03:36:23.865Z,101976.81
2019-05-06T03:38:43.855Z,101972.45
2019-05-06T03:41:13.863Z,101970.16
2019-05-06T03:43:43.638Z,101966.45
2019-05-06T03:46:14.425Z,101967.06
2019-05-06T03:48:44.686Z,101965.58
2019-05-06T03:51:13.687Z,101966.38
2019-05-06T03:53:43.532Z,101967.74
2019-05-06T03:56:15.474Z,101964.58
2019-05-06T03:58:44.023Z,101960.17
2019-05-06T04:01:13.439Z,101960.17
2019-05-06T04:03:47.811Z,101958.88
2019-05-06T04:06:13.850Z,101962.16
2019-05-06T04:08:43.854Z,101963.08
2019-05-06T04:11:15.629Z,101969.28
2019-05-06T04:13:45.439Z,101963.25
2019-05-06T04:16:23.092Z,101964.05
2019-05-06T04:18:54.186Z,101968.70
2019-05-06T04:21:34.006Z,101968.70
2019-05-06T04:24:15.887Z,101964.97
2019-05-06T04:26:55.897Z,101959.79
2019-05-06T04:29:26.167Z,101963.25
2019-05-06T04:31:55.242Z,101967.78
2019-05-06T04:34:23.885Z,101963.95
2019-05-06T04:36:53.388Z,101961.23
2019-05-06T04:39:23.319Z,101966.16
2019-05-06T04:41:53.850Z,101962.48
2019-05-06T04:44:23.899Z,101966.37
2019-05-06T04:46:54.424Z,101968.84
2019-05-06T04:49:23.799Z,101971.05
2019-05-06T04:51:54.080Z,101978.02
2019-05-06T04:54:26.485Z,101979.69
2019-05-06T04:56:54.030Z,101975.45
2019-05-06T04:59:23.301Z,101974.14
2019-05-06T05:01:53.497Z,101979.91
2019-05-06T05:04:31.117Z,101979.90
2019-05-06T05:06:52.829Z,101985.44
2019-05-06T05:09:23.039Z,101984.44
2019-05-06T05:12:02.846Z,101977.49
2019-05-06T05:14:38.990Z,101976.72
2019-05-06T05:17:25.827Z,101974.52
2019-05-06T05:19:54.553Z,101972.66
2019-05-06T05:22:23.183Z,101975.15
2019-05-06T05:24:52.311Z,101974.09
2019-05-06T05:27:21.956Z,101973.84
2019-05-06T05:29:52.243Z,101976.81
2019-05-06T05:32:22.495Z,101972.80
2019-05-06T05:34:52.286Z,101978.23
2019-05-06T05:37:22.832Z,101982.49
2019-05-06T05:39:51.991Z,101980.33
2019-05-06T05:42:22.562Z,101978.69
2019-05-06T05:44:52.893Z,101977.34
2019-05-06T05:47:22.080Z,101974.05
2019-05-06T05:50:08.310Z,101971.95
2019-05-06T05:52:36.887Z,101974.69
2019-05-06T05:55:06.162Z,101966.92
2019-05-06T05:57:34.884Z,101974.45
2019-05-06T06:00:04.228Z,101975.59
2019-05-06T06:02:33.383Z,101971.28
2019-05-06T06:05:02.641Z,101977.49
2019-05-06T06:07:32.746Z,101980.50
2019-05-06T06:10:04.346Z,101979.66
2019-05-06T06:12:32.960Z,101986.89
2019-05-06T06:15:03.189Z,101987.67
2019-05-06T06:17:39.422Z,101992.23
2019-05-06T06:20:26.326Z,101996.80
2019-05-06T06:22:56.853Z,101997.24
2019-05-06T06:25:25.746Z,101998.41
2019-05-06T06:27:54.351Z,101999.03
2019-05-06T06:30:42.403Z,101993.13
2019-05-06T06:33:12.834Z,101984.00
2019-05-06T06:35:54.883Z,101982.11
2019-05-06T06:38:28.057Z,101986.70
2019-05-06T06:40:56.759Z,101977.78
2019-05-06T06:43:27.013Z,101980.72
2019-05-06T06:45:55.614Z,101980.98
2019-05-06T06:48:24.239Z,101980.17
2019-05-06T06:50:54.016Z,101982.08
2019-05-06T06:53:22.618Z,101986.93
2019-05-06T06:55:52.849Z,101988.84
2019-05-06T06:58:32.598Z,101995.09
2019-05-06T07:01:03.306Z,101982.09
2019-05-06T07:03:33.761Z,101985.89
2019-05-06T07:06:03.983Z,101984.00
2019-05-06T07:08:37.401Z,101988.88
2019-05-06T07:11:02.889Z,101991.03
2019-05-06T07:13:32.721Z,101982.91
2019-05-06T07:16:02.928Z,101983.39
2019-05-06T07:18:33.184Z,101985.27
2019-05-06T07:21:05.393Z,101980.42
2019-05-06T07:23:35.404Z,101982.06
2019-05-06T07:26:04.144Z,101984.99
2019-05-06T07:28:32.901Z,101978.77
2019-05-06T07:31:17.872Z,101983.06
2019-05-06T07:33:33.540Z,101973.92
2019-05-06T07:36:02.365Z,101977.17
2019-05-06T07:38:32.560Z,101974.73
2019-05-06T07:41:04.498Z,101977.34
2019-05-06T07:43:53.474Z,101971.67
2019-05-06T07:46:26.437Z,101973.64
2019-05-06T07:48:55.058Z,101960.58
2019-05-06T07:51:23.981Z,101965.02
2019-05-06T07:53:52.614Z,101964.48
2019-05-06T07:56:22.447Z,101965.39
2019-05-06T07:58:53.037Z,101959.44
2019-05-06T08:01:25.859Z,101958.59
2019-05-06T08:03:53.311Z,101956.02
2019-05-06T08:06:22.680Z,101950.41
2019-05-06T08:08:53.650Z,101951.54
2019-05-06T08:11:22.315Z,101946.47
2019-05-06T08:13:52.776Z,101946.98
2019-05-06T08:16:22.598Z,101942.95
2019-05-06T08:18:52.399Z,101939.12
2019-05-06T08:21:23.361Z,101938.80
2019-05-06T08:23:53.818Z,101942.54
2019-05-06T08:26:22.682Z,101943.70
2019-05-06T08:28:52.674Z,101937.48
2019-05-06T08:31:22.731Z,101933.30
2019-05-06T08:33:52.343Z,101930.69
2019-05-06T08:36:23.258Z,101923.05
2019-05-06T08:39:05.927Z,101914.59
2019-05-06T08:41:34.448Z,101918.95
2019-05-06T08:44:03.148Z,101925.37
2019-05-06T08:46:32.752Z,101912.72
2019-05-06T08:49:03.008Z,101922.05
2019-05-06T08:51:49.986Z,101926.75
2019-05-06T08:54:22.564Z,101924.63
2019-05-06T08:56:52.358Z,101923.50
2019-05-06T08:59:20.928Z,101927.88
2019-05-06T09:01:53.365Z,101924.06
2019-05-06T09:04:22.912Z,101922.80
2019-05-06T09:06:53.477Z,101920.15
2019-05-06T09:09:22.600Z,101928.52
2019-05-06T09:11:53.545Z,101926.09
2019-05-06T09:14:23.221Z,101928.40
2019-05-06T09:16:53.929Z,101920.05
2019-05-06T09:19:23.309Z,101922.92
2019-05-06T09:21:53.382Z,101911.13
2019-05-06T09:24:23.100Z,101917.70
2019-05-06T09:26:53.685Z,101915.02
2019-05-06T09:29:26.566Z,101916.90
2019-05-06T09:32:05.527Z,101911.41
2019-05-06T09:34:35.678Z,101921.59
2019-05-06T09:37:17.822Z,101915.83
2019-05-06T09:39:46.573Z,101911.63
2019-05-06T09:42:16.109Z,101917.00
2019-05-06T09:44:45.825Z,101917.78
2019-05-06T09:47:19.283Z,101912.17
2019-05-06T09:49:48.984Z,101915.49
2019-05-06T09:52:17.565Z,101915.02
2019-05-06T09:54:59.583Z,101911.97
2019-05-06T09:57:32.904Z,101918.34
2019-05-06T10:00:04.604Z,101924.23
2019-05-06T10:02:32.627Z,101926.12
2019-05-06T10:05:03.602Z,101926.67
2019-05-06T10:07:33.767Z,101936.94
2019-05-06T10:10:02.112Z,101935.27
2019-05-06T10:12:32.736Z,101936.19
2019-05-06T10:15:03.162Z,101929.45
2019-05-06T10:17:31.242Z,101925.98
2019-05-06T10:20:02.591Z,101926.88
2019-05-06T10:22:32.294Z,101918.42
2019-05-06T10:25:03.379Z,101919.50
2019-05-06T10:27:31.030Z,101918.12
2019-05-06T10:30:04.020Z,101920.69
2019-05-06T10:32:43.354Z,101918.98
2019-05-06T10:35:13.111Z,101912.47
2019-05-06T10:37:47.590Z,101915.74
2019-05-06T10:40:32.869Z,101914.94
2019-05-06T10:43:06.959Z,101915.66
2019-05-06T10:45:35.651Z,101909.23
2019-05-06T10:48:04.302Z,101905.67
2019-05-06T10:50:34.552Z,101907.97
2019-05-06T10:53:08.321Z,101906.52
2019-05-06T10:55:38.550Z,101908.05
2019-05-06T10:58:07.182Z,101922.89
2019-05-06T11:00:36.336Z,101922.41
2019-05-06T11:03:09.307Z,101921.63
2019-05-06T11:05:38.021Z,101922.70
2019-05-06T11:08:06.648Z,101910.63
2019-05-06T11:10:40.972Z,101909.31
2019-05-06T11:13:06.441Z,101901.16
2019-05-06T11:15:35.126Z,101898.63
2019-05-06T11:18:04.826Z,101898.13
2019-05-06T11:20:33.711Z,101896.27
2019-05-06T11:23:02.391Z,101886.02
2019-05-06T11:25:32.296Z,101884.98
2019-05-06T11:28:02.943Z,101886.80
2019-05-06T11:30:39.296Z,101878.66
2019-05-06T11:33:09.982Z,101880.98
2019-05-06T11:35:56.443Z,101884.63
2019-05-06T11:38:25.611Z,101880.55
2019-05-06T11:40:54.241Z,101885.20
2019-05-06T11:43:22.955Z,101893.84
2019-05-06T11:45:52.175Z,101881.81
2019-05-06T11:48:22.219Z,101888.92
2019-05-06T11:50:52.704Z,101884.34
2019-05-06T11:53:23.102Z,101887.34
2019-05-06T11:55:54.439Z,101880.07
2019-05-06T11:58:39.386Z,101875.65
2019-05-06T12:01:09.657Z,101881.27
2019-05-06T12:03:38.199Z,101882.24
2019-05-06T12:06:06.823Z,101884.13
2019-05-06T12:08:35.304Z,101880.48
2019-05-06T12:11:03.887Z,101881.34
2019-05-06T12:13:33.730Z,101882.20
2019-05-06T12:16:02.603Z,101883.18
2019-05-06T12:18:31.463Z,101883.47
2019-05-06T12:21:11.025Z,101881.18
2019-05-06T12:23:34.907Z,101873.99
2019-05-06T12:26:02.417Z,101880.63
2019-05-06T12:28:32.691Z,101877.59
2019-05-06T12:31:01.508Z,101881.16
2019-05-06T12:33:33.002Z,101878.86
2019-05-06T12:36:03.299Z,101876.02
2019-05-06T12:38:33.559Z,101875.14
2019-05-06T12:41:03.300Z,101876.50
2019-05-06T12:43:33.805Z,101877.14
2019-05-06T12:46:04.030Z,101870.55
2019-05-06T12:48:44.037Z,101876.88
2019-05-06T12:51:12.822Z,101872.90
2019-05-06T12:53:42.811Z,101868.63
2019-05-06T12:56:12.403Z,101867.09
2019-05-06T12:58:44.003Z,101860.61
2019-05-06T13:01:13.719Z,101861.97
2019-05-06T13:03:43.247Z,101865.58
2019-05-06T13:06:12.963Z,101854.05
2019-05-06T13:08:56.689Z,101860.81
2019-05-06T13:11:13.198Z,101863.81
2019-05-06T13:13:53.970Z,101867.21
2019-05-06T13:16:12.690Z,101854.91
2019-05-06T13:18:47.023Z,101858.02
2019-05-06T13:21:12.700Z,101851.27
2019-05-06T13:23:43.155Z,101846.49
2019-05-06T13:26:12.833Z,101849.56
2019-05-06T13:28:43.345Z,101855.78
2019-05-06T13:31:19.905Z,101850.22
2019-05-06T13:33:50.450Z,101848.32
2019-05-06T13:36:19.224Z,101847.97
2019-05-06T13:38:47.790Z,101842.33
2019-05-06T13:41:16.412Z,101838.30
2019-05-06T13:43:49.281Z,101838.04
2019-05-06T13:46:19.455Z,101839.52
2019-05-06T13:48:57.514Z,101839.03
2019-05-06T13:51:34.024Z,101835.11
2019-05-06T13:54:02.766Z,101837.89
2019-05-06T13:56:33.118Z,101835.41
2019-05-06T13:59:04.208Z,101843.30
2019-05-06T14:01:36.573Z,101831.44
2019-05-06T14:04:05.252Z,101834.33
2019-05-06T14:06:33.881Z,101837.52
2019-05-06T14:09:02.646Z,101835.09
2019-05-06T14:11:32.440Z,101828.96
2019-05-06T14:14:02.898Z,101833.22
2019-05-06T14:16:33.390Z,101823.72
2019-05-06T14:19:03.975Z,101837.08
2019-05-06T14:21:32.498Z,101829.53
2019-05-06T14:24:02.535Z,101829.97
2019-05-06T14:26:58.106Z,101829.69
2019-05-06T14:29:23.463Z,101826.73
2019-05-06T14:31:53.728Z,101825.49
2019-05-06T14:34:22.986Z,101827.43
2019-05-06T14:36:53.343Z,101826.77
2019-05-06T14:39:24.044Z,101826.14
2019-05-06T14:41:54.315Z,101822.50
2019-05-06T14:44:23.431Z,101826.09
2019-05-06T14:46:59.487Z,101823.99
2019-05-06T14:49:28.098Z,101815.59
2019-05-06T14:51:56.657Z,101818.70
2019-05-06T14:54:25.245Z,101829.72
2019-05-06T14:57:04.562Z,101824.83
2019-05-06T14:59:33.203Z,101827.77
2019-05-06T15:02:02.596Z,101828.41
2019-05-06T15:04:32.525Z,101826.07
2019-05-06T15:07:02.184Z,101843.03
2019-05-06T15:09:32.926Z,101837.26
2019-05-06T15:12:02.326Z,101846.73
2019-05-06T15:14:33.161Z,101854.40
2019-05-06T15:17:02.334Z,101845.80
2019-05-06T15:19:31.006Z,101841.94
2019-05-06T15:22:02.242Z,101844.95
2019-05-06T15:24:31.137Z,101830.12
2019-05-06T15:26:59.784Z,101845.00
2019-05-06T15:29:28.424Z,101845.59
2019-05-06T15:32:12.994Z,101846.73
2019-05-06T15:34:55.590Z,101842.78
2019-05-06T15:37:27.213Z,101840.53
2019-05-06T15:39:55.801Z,101843.37
2019-05-06T15:42:24.454Z,101843.30
2019-05-06T15:44:53.044Z,101841.48
2019-05-06T15:47:22.673Z,101845.63
2019-05-06T15:49:52.640Z,101839.06
2019-05-06T15:52:23.433Z,101847.72
2019-05-06T15:54:52.578Z,101843.47
2019-05-06T15:57:22.911Z,101843.17
2019-05-06T15:59:52.993Z,101838.03
2019-05-06T16:02:23.328Z,101829.60
2019-05-06T16:04:52.178Z,101834.69
2019-05-06T16:07:25.241Z,101820.27
2019-05-06T16:09:55.052Z,101820.27
2019-05-06T16:12:22.656Z,101823.53
2019-05-06T16:14:53.063Z,101821.16
2019-05-06T16:17:23.773Z,101823.78
2019-05-06T16:19:52.084Z,101815.65
2019-05-06T16:22:22.586Z,101819.42
2019-05-06T16:24:53.455Z,101815.65
2019-05-06T16:27:22.953Z,101813.66
2019-05-06T16:29:52.957Z,101807.08
2019-05-06T16:32:22.048Z,101805.39
2019-05-06T16:34:52.456Z,101810.13
2019-05-06T16:37:22.349Z,101805.16
2019-05-06T16:39:54.166Z,101799.87
2019-05-06T16:42:22.549Z,101794.10
2019-05-06T16:44:52.635Z,101795.26
2019-05-06T16:47:37.114Z,101787.84
2019-05-06T16:50:13.013Z,101791.27
2019-05-06T16:52:44.803Z,101790.63
2019-05-06T16:55:14.311Z,101788.45
2019-05-06T16:57:44.477Z,101791.03
2019-05-06T17:00:16.176Z,101787.39
2019-05-06T17:02:57.048Z,101789.36
2019-05-06T17:05:22.424Z,101791.23
2019-05-06T17:07:53.222Z,101786.41
2019-05-06T17:10:22.765Z,101792.92
2019-05-06T17:12:53.678Z,101785.84
2019-05-06T17:15:23.013Z,101783.88
2019-05-06T17:17:53.173Z,101782.67
2019-05-06T17:20:22.803Z,101782.33
2019-05-06T17:22:53.186Z,101781.82
2019-05-06T17:25:22.470Z,101783.89
2019-05-06T17:27:52.652Z,101787.56
2019-05-06T17:30:33.266Z,101792.48
2019-05-06T17:33:19.908Z,101791.80
2019-05-06T17:35:48.499Z,101786.30
2019-05-06T17:38:18.783Z,101789.61
2019-05-06T17:40:47.288Z,101789.61
2019-05-06T17:43:15.928Z,101792.41
2019-05-06T17:45:58.485Z,101790.80
2019-05-06T17:48:27.914Z,101784.95
2019-05-06T17:51:14.037Z,101782.11
2019-05-06T17:53:44.463Z,101787.64
2019-05-06T17:56:13.053Z,101783.80
2019-05-06T17:58:42.320Z,101789.87
2019-05-06T18:01:12.638Z,101792.11
2019-05-06T18:03:41.351Z,101790.70
2019-05-06T18:06:13.844Z,101794.55
2019-05-06T18:08:43.029Z,101792.42
2019-05-06T18:11:12.769Z,101790.62
2019-05-06T18:13:41.182Z,101790.52
2019-05-06T18:16:09.855Z,101786.37
2019-05-06T18:18:38.474Z,101787.44
2019-05-06T18:21:07.110Z,101785.05
2019-05-06T18:23:35.834Z,101789.86
2019-05-06T18:26:04.441Z,101795.92
2019-05-06T18:28:33.052Z,101797.75
2019-05-06T18:31:03.055Z,101797.15
2019-05-06T18:33:32.706Z,101796.23
2019-05-06T18:36:02.550Z,101797.62
2019-05-06T18:38:33.478Z,101799.27
2019-05-06T18:41:02.140Z,101806.37
2019-05-06T18:43:33.216Z,101807.23
2019-05-06T18:46:02.834Z,101808.39
2019-05-06T18:48:35.108Z,101804.04
2019-05-06T18:51:03.034Z,101807.84
2019-05-06T18:53:33.096Z,101807.61
2019-05-06T18:56:03.156Z,101805.36
2019-05-06T18:58:32.442Z,101806.92
2019-05-06T19:01:00.930Z,101813.59
2019-05-06T19:03:32.044Z,101808.66
2019-05-06T19:06:02.331Z,101814.47
2019-05-06T19:08:38.649Z,101817.98
2019-05-06T19:11:08.903Z,101816.00
2019-05-06T19:13:37.487Z,101824.50
2019-05-06T19:16:06.305Z,101835.10
2019-05-06T19:18:34.709Z,101830.53
2019-05-06T19:21:03.308Z,101828.59
2019-05-06T19:23:32.545Z,101837.53
2019-05-06T19:26:02.944Z,101839.38
2019-05-06T19:28:32.813Z,101833.10
2019-05-06T19:31:03.080Z,101840.00
2019-05-06T19:33:34.722Z,101840.00
2019-05-06T19:36:03.164Z,101849.72
2019-05-06T19:38:32.982Z,101839.53
2019-05-06T19:41:05.634Z,101841.20
2019-05-06T19:43:32.919Z,101843.39
2019-05-06T19:46:02.603Z,101843.98
2019-05-06T19:48:32.797Z,101847.55
2019-05-06T19:51:03.062Z,101848.41
2019-05-06T19:53:32.274Z,101847.64
2019-05-06T19:56:02.802Z,101851.69
2019-05-06T19:58:31.693Z,101852.23
2019-05-06T20:01:02.343Z,101855.73
2019-05-06T20:03:32.695Z,101858.11
2019-05-06T20:06:19.193Z,101854.59
2019-05-06T20:08:52.907Z,101855.64
2019-05-06T20:11:24.051Z,101855.23
2019-05-06T20:13:52.715Z,101851.50
2019-05-06T20:16:23.001Z,101851.34
2019-05-06T20:18:52.670Z,101855.92
2019-05-06T20:21:23.044Z,101854.07
2019-05-06T20:23:52.720Z,101859.63
2019-05-06T20:26:21.957Z,101861.83
2019-05-06T20:28:52.606Z,101855.36
2019-05-06T20:31:22.613Z,101857.78
2019-05-06T20:33:52.810Z,101851.22
2019-05-06T20:36:22.728Z,101849.02
2019-05-06T20:38:51.351Z,101851.80
2019-05-06T20:41:22.025Z,101851.77
2019-05-06T20:43:50.322Z,101849.52
2019-05-06T20:46:18.859Z,101851.63
2019-05-06T20:48:47.559Z,101857.30
2019-05-06T20:51:16.236Z,101850.46
2019-05-06T20:53:44.837Z,101853.02
2019-05-06T20:56:13.394Z,101851.16
2019-05-06T20:58:42.169Z,101850.37
2019-05-06T21:01:10.701Z,101849.86
2019-05-06T21:03:39.236Z,101859.12
2019-05-06T21:06:07.831Z,101862.65
2019-05-06T21:08:36.529Z,101857.20
2019-05-06T21:11:05.187Z,101858.95
2019-05-06T21:13:35.608Z,101859.16
2019-05-06T21:16:04.043Z,101862.37
2019-05-06T21:18:32.650Z,101866.15
2019-05-06T21:21:02.063Z,101858.48
2019-05-06T21:23:32.147Z,101858.63
2019-05-06T21:26:03.133Z,101860.44
2019-05-06T21:28:31.177Z,101856.55
2019-05-06T21:30:59.793Z,101862.66
2019-05-06T21:33:28.360Z,101851.97
2019-05-06T21:35:56.971Z,101858.56
2019-05-06T21:38:25.517Z,101851.02
2019-05-06T21:40:54.074Z,101855.70
2019-05-06T21:43:22.886Z,101854.89
2019-05-06T21:45:51.393Z,101854.56
2019-05-06T21:48:22.104Z,101851.31
2019-05-06T21:50:52.248Z,101846.30
2019-05-06T21:53:22.896Z,101854.34
2019-05-06T21:55:52.547Z,101849.91
2019-05-06T21:58:23.183Z,101852.23
2019-05-06T22:01:02.449Z,101852.14
2019-05-06T22:03:32.717Z,101850.09
2019-05-06T22:06:02.314Z,101853.72
2019-05-06T22:08:32.830Z,101863.91
2019-05-06T22:11:02.984Z,101846.91
2019-05-06T22:13:33.264Z,101849.38
2019-05-06T22:16:04.667Z,101845.26
2019-05-06T22:18:32.505Z,101850.81
2019-05-06T22:21:03.026Z,101843.63
2019-05-06T22:23:49.709Z,101841.55
2019-05-06T22:26:18.387Z,101839.36
2019-05-06T22:28:47.278Z,101839.10
2019-05-06T22:31:15.930Z,101839.71
2019-05-06T22:33:44.499Z,101836.97
2019-05-06T22:36:13.339Z,101835.55
2019-05-06T22:38:44.163Z,101835.38
2019-05-06T22:41:12.573Z,101828.52
2019-05-06T22:43:42.368Z,101829.57
2019-05-06T22:46:12.360Z,101836.02
2019-05-06T22:48:43.266Z,101828.80
2019-05-06T22:51:12.339Z,101828.46
2019-05-06T22:53:42.493Z,101834.38
2019-05-06T22:56:12.959Z,101828.61
2019-05-06T22:58:42.750Z,101828.19
2019-05-06T23:01:32.463Z,101825.12
2019-05-06T23:04:02.051Z,101822.63
2019-05-06T23:06:32.754Z,101823.68
2019-05-06T23:09:02.554Z,101830.72
2019-05-06T23:11:32.872Z,101838.53
2019-05-06T23:14:02.749Z,101838.13
2019-05-06T23:16:32.870Z,101838.94
2019-05-06T23:19:02.179Z,101842.23
2019-05-06T23:21:33.490Z,101838.88
2019-05-06T23:24:02.110Z,101844.28
2019-05-06T23:26:30.792Z,101839.91
2019-05-06T23:28:59.377Z,101838.93
2019-05-06T23:34:09.033Z,101838.20
2019-05-06T23:36:57.439Z,101838.68
2019-05-06T23:40:04.286Z,101841.58
2019-05-06T23:43:09.889Z,101845.16
2019-05-06T23:46:14.984Z,101844.69
2019-05-06T23:49:22.202Z,101845.13
2019-05-06T23:52:26.529Z,101840.97
2019-05-06T23:55:32.199Z,101846.03
2019-05-06T23:57:59.492Z,101846.03
